sensor_id;sensor_type;location;lat;lon;timestamp;pressure;altitude;pressure_sealevel;temperature;humidity
9521;BME280;4798;41.574;23.734;2023-09-18T00:01:25;95764.44;;;18.36;100.00
9521;BME280;4798;41.574;23.734;2023-09-18T00:03:55;95761.03;;;18.44;100.00
9521;BME280;4798;41.574;23.734;2023-09-18T00:06:24;95762.94;;;18.74;100.00
9521;BME280;4798;41.574;23.734;2023-09-18T00:08:53;95762.13;;;18.74;100.00
9521;BME280;4798;41.574;23.734;2023-09-18T00:11:21;95736.31;;;18.56;100.00
9521;BME280;4798;41.574;23.734;2023-09-18T00:13:51;95725.75;;;18.59;100.00
9521;BME280;4798;41.574;23.734;2023-09-18T00:16:19;95771.16;;;18.78;100.00
9521;BME280;4798;41.574;23.734;2023-09-18T00:18:48;95771.34;;;18.81;100.00
9521;BME280;4798;41.574;23.734;2023-09-18T00:21:16;95768.59;;;18.73;100.00
9521;BME280;4798;41.574;23.734;2023-09-18T00:23:45;95771.00;;;18.52;100.00
9521;BME280;4798;41.574;23.734;2023-09-18T00:26:13;95777.13;;;18.00;100.00
9521;BME280;4798;41.574;23.734;2023-09-18T00:28:42;95773.72;;;18.08;100.00
9521;BME280;4798;41.574;23.734;2023-09-18T00:31:11;95780.75;;;17.82;100.00
9521;BME280;4798;41.574;23.734;2023-09-18T00:33:40;95782.44;;;18.13;100.00
9521;BME280;4798;41.574;23.734;2023-09-18T00:36:08;95788.00;;;17.81;100.00
9521;BME280;4798;41.574;23.734;2023-09-18T00:38:37;95724.25;;;17.56;100.00
9521;BME280;4798;41.574;23.734;2023-09-18T00:41:05;95747.59;;;17.55;100.00
9521;BME280;4798;41.574;23.734;2023-09-18T00:43:34;95790.06;;;17.62;100.00
9521;BME280;4798;41.574;23.734;2023-09-18T00:46:02;95791.72;;;17.71;100.00
9521;BME280;4798;41.574;23.734;2023-09-18T00:48:32;95785.66;;;17.80;100.00
9521;BME280;4798;41.574;23.734;2023-09-18T00:51:01;95790.44;;;17.69;100.00
9521;BME280;4798;41.574;23.734;2023-09-18T00:53:30;95778.50;;;17.75;100.00
9521;BME280;4798;41.574;23.734;2023-09-18T00:56:00;95776.34;;;17.63;100.00
9521;BME280;4798;41.574;23.734;2023-09-18T00:58:29;95780.63;;;17.64;100.00
9521;BME280;4798;41.574;23.734;2023-09-18T01:00:58;95775.09;;;17.47;100.00
9521;BME280;4798;41.574;23.734;2023-09-18T01:03:26;95782.84;;;17.85;100.00
9521;BME280;4798;41.574;23.734;2023-09-18T01:05:56;95780.75;;;17.82;100.00
9521;BME280;4798;41.574;23.734;2023-09-18T01:08:25;95783.84;;;18.11;100.00
9521;BME280;4798;41.574;23.734;2023-09-18T01:10:59;95783.72;;;18.38;100.00
9521;BME280;4798;41.574;23.734;2023-09-18T01:13:34;95774.34;;;18.49;100.00
9521;BME280;4798;41.574;23.734;2023-09-18T01:16:08;95782.13;;;18.59;100.00
9521;BME280;4798;41.574;23.734;2023-09-18T01:18:38;95780.84;;;18.57;100.00
9521;BME280;4798;41.574;23.734;2023-09-18T01:21:08;95632.03;;;17.21;100.00
9521;BME280;4798;41.574;23.734;2023-09-18T01:23:37;95785.16;;;18.22;100.00
9521;BME280;4798;41.574;23.734;2023-09-18T01:26:06;95792.56;;;18.16;100.00
9521;BME280;4798;41.574;23.734;2023-09-18T01:28:35;95780.47;;;17.83;100.00
9521;BME280;4798;41.574;23.734;2023-09-18T01:31:03;95788.28;;;17.57;100.00
9521;BME280;4798;41.574;23.734;2023-09-18T01:33:32;95781.25;;;17.34;100.00
9521;BME280;4798;41.574;23.734;2023-09-18T01:36:03;95786.81;;;17.38;100.00
9521;BME280;4798;41.574;23.734;2023-09-18T01:38:35;95779.00;;;17.28;100.00
9521;BME280;4798;41.574;23.734;2023-09-18T01:41:06;95783.25;;;17.29;100.00
9521;BME280;4798;41.574;23.734;2023-09-18T01:43:36;95786.50;;;17.39;100.00
9521;BME280;4798;41.574;23.734;2023-09-18T01:46:04;95786.22;;;17.54;100.00
9521;BME280;4798;41.574;23.734;2023-09-18T01:48:33;95791.03;;;18.02;100.00
9521;BME280;4798;41.574;23.734;2023-09-18T01:51:02;95773.84;;;18.25;100.00
9521;BME280;4798;41.574;23.734;2023-09-18T01:53:30;95782.19;;;18.46;100.00
9521;BME280;4798;41.574;23.734;2023-09-18T01:55:58;95781.84;;;18.16;100.00
9521;BME280;4798;41.574;23.734;2023-09-18T01:58:28;95784.00;;;18.14;100.00
9521;BME280;4798;41.574;23.734;2023-09-18T02:01:00;95787.00;;;18.13;100.00
9521;BME280;4798;41.574;23.734;2023-09-18T02:03:29;95785.16;;;17.77;100.00
9521;BME280;4798;41.574;23.734;2023-09-18T02:06:17;95779.16;;;17.31;100.00
9521;BME280;4798;41.574;23.734;2023-09-18T02:08:45;95784.84;;;17.30;100.00
9521;BME280;4798;41.574;23.734;2023-09-18T02:11:14;95773.75;;;17.23;100.00
9521;BME280;4798;41.574;23.734;2023-09-18T02:13:44;95783.22;;;17.42;100.00
9521;BME280;4798;41.574;23.734;2023-09-18T02:16:12;95778.47;;;17.39;100.00
9521;BME280;4798;41.574;23.734;2023-09-18T02:18:40;95781.16;;;17.26;100.00
9521;BME280;4798;41.574;23.734;2023-09-18T02:21:10;95776.38;;;17.36;100.00
9521;BME280;4798;41.574;23.734;2023-09-18T02:23:37;95781.06;;;17.31;100.00
9521;BME280;4798;41.574;23.734;2023-09-18T02:26:05;95775.34;;;17.10;100.00
9521;BME280;4798;41.574;23.734;2023-09-18T02:28:35;95774.16;;;17.02;100.00
9521;BME280;4798;41.574;23.734;2023-09-18T02:31:05;95767.81;;;16.85;100.00
9521;BME280;4798;41.574;23.734;2023-09-18T02:33:33;95763.25;;;16.72;100.00
9521;BME280;4798;41.574;23.734;2023-09-18T02:36:01;95766.41;;;16.87;100.00
9521;BME280;4798;41.574;23.734;2023-09-18T02:38:29;95765.78;;;17.31;100.00
9521;BME280;4798;41.574;23.734;2023-09-18T02:40:58;95767.16;;;17.42;100.00
9521;BME280;4798;41.574;23.734;2023-09-18T02:43:26;95773.72;;;17.86;100.00
9521;BME280;4798;41.574;23.734;2023-09-18T02:45:55;95766.81;;;18.15;100.00
9521;BME280;4798;41.574;23.734;2023-09-18T02:48:25;95759.56;;;18.38;100.00
9521;BME280;4798;41.574;23.734;2023-09-18T02:50:53;95761.28;;;18.34;100.00
9521;BME280;4798;41.574;23.734;2023-09-18T02:53:22;95759.50;;;18.52;100.00
9521;BME280;4798;41.574;23.734;2023-09-18T02:55:52;95770.53;;;18.50;100.00
9521;BME280;4798;41.574;23.734;2023-09-18T02:58:21;95772.00;;;18.34;100.00
9521;BME280;4798;41.574;23.734;2023-09-18T03:00:56;95771.13;;;18.69;100.00
9521;BME280;4798;41.574;23.734;2023-09-18T03:03:26;95726.97;;;18.00;100.00
9521;BME280;4798;41.574;23.734;2023-09-18T03:06:00;95788.06;;;18.03;100.00
9521;BME280;4798;41.574;23.734;2023-09-18T03:08:30;95727.28;;;17.27;100.00
9521;BME280;4798;41.574;23.734;2023-09-18T03:10:58;95787.88;;;17.50;100.00
9521;BME280;4798;41.574;23.734;2023-09-18T03:13:27;95796.13;;;17.67;100.00
9521;BME280;4798;41.574;23.734;2023-09-18T03:15:56;95793.00;;;17.74;100.00
9521;BME280;4798;41.574;23.734;2023-09-18T03:18:25;95794.84;;;17.87;100.00
9521;BME280;4798;41.574;23.734;2023-09-18T03:20:54;95749.47;;;17.41;100.00
9521;BME280;4798;41.574;23.734;2023-09-18T03:23:22;95796.13;;;17.90;100.00
9521;BME280;4798;41.574;23.734;2023-09-18T03:25:51;95799.06;;;17.80;100.00
9521;BME280;4798;41.574;23.734;2023-09-18T03:28:19;95752.44;;;17.53;100.00
9521;BME280;4798;41.574;23.734;2023-09-18T03:30:47;95788.66;;;17.64;100.00
9521;BME280;4798;41.574;23.734;2023-09-18T03:33:14;95782.44;;;17.55;100.00
9521;BME280;4798;41.574;23.734;2023-09-18T03:35:49;95787.53;;;17.30;100.00
9521;BME280;4798;41.574;23.734;2023-09-18T03:38:17;95760.66;;;16.80;100.00
9521;BME280;4798;41.574;23.734;2023-09-18T03:40:46;95794.69;;;16.80;100.00
9521;BME280;4798;41.574;23.734;2023-09-18T03:43:14;95776.09;;;16.70;100.00
9521;BME280;4798;41.574;23.734;2023-09-18T03:45:42;95779.19;;;16.90;100.00
9521;BME280;4798;41.574;23.734;2023-09-18T03:48:11;95780.28;;;16.76;100.00
9521;BME280;4798;41.574;23.734;2023-09-18T03:50:39;95778.09;;;16.78;100.00
9521;BME280;4798;41.574;23.734;2023-09-18T03:53:10;95779.31;;;17.12;100.00
9521;BME280;4798;41.574;23.734;2023-09-18T03:55:38;95781.53;;;17.60;100.00
9521;BME280;4798;41.574;23.734;2023-09-18T03:58:07;95792.22;;;17.73;100.00
9521;BME280;4798;41.574;23.734;2023-09-18T04:00:35;95790.19;;;17.57;100.00
9521;BME280;4798;41.574;23.734;2023-09-18T04:03:04;95782.22;;;17.38;100.00
9521;BME280;4798;41.574;23.734;2023-09-18T04:05:32;95791.28;;;17.42;100.00
9521;BME280;4798;41.574;23.734;2023-09-18T04:08:01;95793.47;;;17.40;100.00
9521;BME280;4798;41.574;23.734;2023-09-18T04:10:30;95790.22;;;16.89;100.00
9521;BME280;4798;41.574;23.734;2023-09-18T04:12:59;95770.84;;;16.65;100.00
9521;BME280;4798;41.574;23.734;2023-09-18T04:15:28;95788.69;;;16.56;100.00
9521;BME280;4798;41.574;23.734;2023-09-18T04:17:58;95793.53;;;16.67;100.00
9521;BME280;4798;41.574;23.734;2023-09-18T04:20:26;95786.00;;;16.56;100.00
9521;BME280;4798;41.574;23.734;2023-09-18T04:23:20;95789.13;;;16.90;100.00
9521;BME280;4798;41.574;23.734;2023-09-18T04:25:51;95780.19;;;17.35;100.00
9521;BME280;4798;41.574;23.734;2023-09-18T04:28:21;95781.72;;;17.63;100.00
9521;BME280;4798;41.574;23.734;2023-09-18T04:30:49;95788.28;;;17.57;100.00
9521;BME280;4798;41.574;23.734;2023-09-18T04:33:18;95783.53;;;17.54;100.00
9521;BME280;4798;41.574;23.734;2023-09-18T04:35:48;95786.13;;;17.19;100.00
9521;BME280;4798;41.574;23.734;2023-09-18T04:38:17;95800.53;;;17.09;100.00
9521;BME280;4798;41.574;23.734;2023-09-18T04:40:46;95791.75;;;17.44;100.00
9521;BME280;4798;41.574;23.734;2023-09-18T04:43:16;95796.00;;;17.72;100.00
9521;BME280;4798;41.574;23.734;2023-09-18T04:45:45;95801.72;;;17.80;100.00
9521;BME280;4798;41.574;23.734;2023-09-18T04:48:13;95775.47;;;17.68;100.00
9521;BME280;4798;41.574;23.734;2023-09-18T04:50:42;95798.81;;;18.12;100.00
9521;BME280;4798;41.574;23.734;2023-09-18T04:53:10;95811.16;;;17.91;100.00
9521;BME280;4798;41.574;23.734;2023-09-18T04:55:38;95812.00;;;18.22;100.00
9521;BME280;4798;41.574;23.734;2023-09-18T04:58:07;95807.63;;;18.26;100.00
9521;BME280;4798;41.574;23.734;2023-09-18T05:00:37;95809.94;;;18.19;100.00
9521;BME280;4798;41.574;23.734;2023-09-18T05:03:05;95808.03;;;18.19;100.00
9521;BME280;4798;41.574;23.734;2023-09-18T05:05:35;95804.94;;;18.26;100.00
9521;BME280;4798;41.574;23.734;2023-09-18T05:08:06;95807.78;;;18.29;100.00
9521;BME280;4798;41.574;23.734;2023-09-18T05:10:35;95807.59;;;18.04;100.00
9521;BME280;4798;41.574;23.734;2023-09-18T05:13:03;95796.78;;;18.31;100.00
9521;BME280;4798;41.574;23.734;2023-09-18T05:15:31;95803.91;;;18.35;100.00
9521;BME280;4798;41.574;23.734;2023-09-18T05:18:01;95800.59;;;18.61;100.00
9521;BME280;4798;41.574;23.734;2023-09-18T05:20:31;95791.69;;;18.82;100.00
9521;BME280;4798;41.574;23.734;2023-09-18T05:23:00;95806.19;;;19.03;100.00
9521;BME280;4798;41.574;23.734;2023-09-18T05:25:29;95800.19;;;19.15;100.00
9521;BME280;4798;41.574;23.734;2023-09-18T05:28:00;95801.06;;;18.93;100.00
9521;BME280;4798;41.574;23.734;2023-09-18T05:30:32;95799.72;;;19.05;100.00
9521;BME280;4798;41.574;23.734;2023-09-18T05:33:04;95794.63;;;19.03;100.00
9521;BME280;4798;41.574;23.734;2023-09-18T05:35:34;95805.03;;;18.96;100.00
9521;BME280;4798;41.574;23.734;2023-09-18T05:38:03;95806.78;;;18.92;100.00
9521;BME280;4798;41.574;23.734;2023-09-18T05:40:32;95806.94;;;19.35;100.00
9521;BME280;4798;41.574;23.734;2023-09-18T05:43:00;95813.19;;;19.22;100.00
9521;BME280;4798;41.574;23.734;2023-09-18T05:45:29;95809.38;;;19.62;100.00
9521;BME280;4798;41.574;23.734;2023-09-18T05:47:58;95808.28;;;19.80;100.00
9521;BME280;4798;41.574;23.734;2023-09-18T05:50:34;95809.25;;;20.18;100.00
9521;BME280;4798;41.574;23.734;2023-09-18T05:53:04;95811.13;;;20.69;100.00
9521;BME280;4798;41.574;23.734;2023-09-18T05:55:33;95807.75;;;21.27;100.00
9521;BME280;4798;41.574;23.734;2023-09-18T05:58:02;95778.69;;;21.33;100.00
9521;BME280;4798;41.574;23.734;2023-09-18T06:00:32;95805.69;;;21.83;100.00
9521;BME280;4798;41.574;23.734;2023-09-18T06:03:00;95806.88;;;21.94;100.00
9521;BME280;4798;41.574;23.734;2023-09-18T06:05:29;95812.72;;;22.37;97.39
9521;BME280;4798;41.574;23.734;2023-09-18T06:08:02;95808.88;;;22.59;96.28
9521;BME280;4798;41.574;23.734;2023-09-18T06:10:31;95809.53;;;22.89;96.71
9521;BME280;4798;41.574;23.734;2023-09-18T06:12:59;95811.16;;;23.02;95.20
9521;BME280;4798;41.574;23.734;2023-09-18T06:15:31;95809.91;;;22.99;90.45
9521;BME280;4798;41.574;23.734;2023-09-18T06:18:00;95808.66;;;23.21;88.06
9521;BME280;4798;41.574;23.734;2023-09-18T06:20:28;95811.09;;;23.47;88.32
9521;BME280;4798;41.574;23.734;2023-09-18T06:22:57;95809.03;;;23.56;85.05
9521;BME280;4798;41.574;23.734;2023-09-18T06:25:27;95806.66;;;23.30;88.16
9521;BME280;4798;41.574;23.734;2023-09-18T06:27:55;95812.56;;;22.87;92.34
9521;BME280;4798;41.574;23.734;2023-09-18T06:30:24;95807.97;;;23.00;91.50
9521;BME280;4798;41.574;23.734;2023-09-18T06:32:52;95803.13;;;23.05;93.32
9521;BME280;4798;41.574;23.734;2023-09-18T06:35:21;95807.47;;;23.43;89.27
9521;BME280;4798;41.574;23.734;2023-09-18T06:37:49;95764.25;;;23.58;90.18
9521;BME280;4798;41.574;23.734;2023-09-18T06:40:18;95791.63;;;24.33;85.08
9521;BME280;4798;41.574;23.734;2023-09-18T06:42:47;95792.25;;;24.42;83.24
9521;BME280;4798;41.574;23.734;2023-09-18T06:45:16;95788.91;;;24.88;82.56
9521;BME280;4798;41.574;23.734;2023-09-18T06:47:45;95795.53;;;25.38;80.84
9521;BME280;4798;41.574;23.734;2023-09-18T06:50:14;95789.59;;;25.32;78.45
9521;BME280;4798;41.574;23.734;2023-09-18T06:52:42;95790.13;;;25.06;78.29
9521;BME280;4798;41.574;23.734;2023-09-18T06:55:10;95796.09;;;25.12;77.95
9521;BME280;4798;41.574;23.734;2023-09-18T06:57:39;95797.75;;;25.16;80.32
9521;BME280;4798;41.574;23.734;2023-09-18T07:00:10;95789.84;;;26.28;76.37
9521;BME280;4798;41.574;23.734;2023-09-18T07:02:41;95792.81;;;26.80;72.42
9521;BME280;4798;41.574;23.734;2023-09-18T07:05:09;95791.00;;;26.46;73.12
9521;BME280;4798;41.574;23.734;2023-09-18T07:07:38;95782.44;;;26.67;71.61
9521;BME280;4798;41.574;23.734;2023-09-18T07:10:07;95779.19;;;26.38;73.76
9521;BME280;4798;41.574;23.734;2023-09-18T07:12:35;95791.88;;;26.31;70.83
9521;BME280;4798;41.574;23.734;2023-09-18T07:15:05;95782.75;;;26.81;70.25
9521;BME280;4798;41.574;23.734;2023-09-18T07:17:35;95779.66;;;27.05;69.39
9521;BME280;4798;41.574;23.734;2023-09-18T07:20:05;95787.88;;;26.09;71.29
9521;BME280;4798;41.574;23.734;2023-09-18T07:22:46;95794.81;;;25.72;74.30
9521;BME280;4798;41.574;23.734;2023-09-18T07:25:15;95787.50;;;24.94;76.83
9521;BME280;4798;41.574;23.734;2023-09-18T07:27:43;95782.31;;;24.46;80.08
9521;BME280;4798;41.574;23.734;2023-09-18T07:30:12;95791.47;;;24.14;81.86
9521;BME280;4798;41.574;23.734;2023-09-18T07:32:44;95790.63;;;23.73;85.49
9521;BME280;4798;41.574;23.734;2023-09-18T07:35:13;95775.81;;;23.95;86.13
9521;BME280;4798;41.574;23.734;2023-09-18T07:37:43;95788.56;;;23.94;85.60
9521;BME280;4798;41.574;23.734;2023-09-18T07:40:14;95796.56;;;23.91;87.40
9521;BME280;4798;41.574;23.734;2023-09-18T07:42:44;95793.41;;;24.13;87.87
9521;BME280;4798;41.574;23.734;2023-09-18T07:45:13;95799.34;;;24.19;87.45
9521;BME280;4798;41.574;23.734;2023-09-18T07:47:41;95794.03;;;24.78;85.37
9521;BME280;4798;41.574;23.734;2023-09-18T07:50:12;95766.31;;;25.31;82.25
9521;BME280;4798;41.574;23.734;2023-09-18T07:52:44;95780.41;;;26.22;75.84
9521;BME280;4798;41.574;23.734;2023-09-18T07:55:12;95783.69;;;26.50;72.92
9521;BME280;4798;41.574;23.734;2023-09-18T07:57:40;95758.50;;;26.95;71.51
9521;BME280;4798;41.574;23.734;2023-09-18T08:00:12;95781.91;;;27.97;65.67
9521;BME280;4798;41.574;23.734;2023-09-18T08:02:42;95780.38;;;28.00;65.41
9521;BME280;4798;41.574;23.734;2023-09-18T08:05:12;95771.94;;;28.08;65.89
9521;BME280;4798;41.574;23.734;2023-09-18T08:07:41;95760.34;;;28.81;64.65
9521;BME280;4798;41.574;23.734;2023-09-18T08:10:10;95758.47;;;28.89;63.15
9521;BME280;4798;41.574;23.734;2023-09-18T08:12:39;95760.41;;;28.88;64.45
9521;BME280;4798;41.574;23.734;2023-09-18T08:15:08;95757.47;;;29.08;61.14
9521;BME280;4798;41.574;23.734;2023-09-18T08:17:36;95751.44;;;29.28;60.74
9521;BME280;4798;41.574;23.734;2023-09-18T08:20:08;95747.88;;;29.75;61.00
9521;BME280;4798;41.574;23.734;2023-09-18T08:22:41;95747.72;;;30.19;59.13
9521;BME280;4798;41.574;23.734;2023-09-18T08:25:11;95738.88;;;30.54;56.64
9521;BME280;4798;41.574;23.734;2023-09-18T08:27:40;95697.41;;;29.58;57.39
9521;BME280;4798;41.574;23.734;2023-09-18T08:30:09;95721.69;;;30.57;58.96
9521;BME280;4798;41.574;23.734;2023-09-18T08:32:39;95724.13;;;31.32;54.22
9521;BME280;4798;41.574;23.734;2023-09-18T08:35:08;95688.47;;;31.68;52.42
9521;BME280;4798;41.574;23.734;2023-09-18T08:37:37;95713.09;;;31.99;53.78
9521;BME280;4798;41.574;23.734;2023-09-18T08:40:10;95712.06;;;32.55;52.89
9521;BME280;4798;41.574;23.734;2023-09-18T08:42:45;95710.81;;;31.56;55.58
9521;BME280;4798;41.574;23.734;2023-09-18T08:45:18;95716.63;;;31.79;54.18
9521;BME280;4798;41.574;23.734;2023-09-18T08:47:47;95700.72;;;32.46;51.35
9521;BME280;4798;41.574;23.734;2023-09-18T08:50:16;95703.66;;;31.97;49.14
9521;BME280;4798;41.574;23.734;2023-09-18T08:52:47;95701.22;;;32.31;47.46
9521;BME280;4798;41.574;23.734;2023-09-18T08:55:17;95645.75;;;33.12;47.10
9521;BME280;4798;41.574;23.734;2023-09-18T08:57:46;95689.25;;;34.89;43.45
9521;BME280;4798;41.574;23.734;2023-09-18T09:00:14;95696.03;;;34.85;45.17
9521;BME280;4798;41.574;23.734;2023-09-18T09:02:45;95675.88;;;34.34;41.86
9521;BME280;4798;41.574;23.734;2023-09-18T09:05:16;95672.78;;;33.99;41.72
9521;BME280;4798;41.574;23.734;2023-09-18T09:07:45;95677.69;;;35.01;41.52
9521;BME280;4798;41.574;23.734;2023-09-18T09:10:13;95676.19;;;34.70;39.65
9521;BME280;4798;41.574;23.734;2023-09-18T09:12:56;95673.22;;;34.58;39.75
9521;BME280;4798;41.574;23.734;2023-09-18T09:15:27;95667.56;;;34.68;38.90
9521;BME280;4798;41.574;23.734;2023-09-18T09:18:04;95681.25;;;34.15;41.58
9521;BME280;4798;41.574;23.734;2023-09-18T09:20:33;95656.50;;;32.34;41.97
9521;BME280;4798;41.574;23.734;2023-09-18T09:23:03;95676.75;;;31.64;42.45
9521;BME280;4798;41.574;23.734;2023-09-18T09:25:33;95671.47;;;32.19;42.76
9521;BME280;4798;41.574;23.734;2023-09-18T09:28:04;95669.88;;;33.35;41.69
9521;BME280;4798;41.574;23.734;2023-09-18T09:30:33;95666.84;;;33.25;40.11
9521;BME280;4798;41.574;23.734;2023-09-18T09:33:04;95667.28;;;34.29;39.11
9521;BME280;4798;41.574;23.734;2023-09-18T09:35:35;95653.00;;;35.18;37.44
9521;BME280;4798;41.574;23.734;2023-09-18T09:38:07;95661.50;;;34.50;37.10
9521;BME280;4798;41.574;23.734;2023-09-18T09:40:39;95663.25;;;35.40;37.35
9521;BME280;4798;41.574;23.734;2023-09-18T09:43:10;95652.09;;;35.47;36.59
9521;BME280;4798;41.574;23.734;2023-09-18T09:45:41;95648.09;;;34.79;37.52
9521;BME280;4798;41.574;23.734;2023-09-18T09:48:09;95631.44;;;35.59;35.14
9521;BME280;4798;41.574;23.734;2023-09-18T09:50:45;95640.09;;;35.57;35.07
9521;BME280;4798;41.574;23.734;2023-09-18T09:53:14;95608.84;;;34.98;36.89
9521;BME280;4798;41.574;23.734;2023-09-18T09:55:42;95638.63;;;34.26;37.87
9521;BME280;4798;41.574;23.734;2023-09-18T09:58:12;95635.63;;;33.05;38.74
9521;BME280;4798;41.574;23.734;2023-09-18T10:00:43;95639.00;;;32.03;39.44
9521;BME280;4798;41.574;23.734;2023-09-18T10:03:14;95642.34;;;31.52;40.85
9521;BME280;4798;41.574;23.734;2023-09-18T10:05:45;95621.09;;;31.77;41.14
9521;BME280;4798;41.574;23.734;2023-09-18T10:08:17;95621.56;;;31.40;40.58
9521;BME280;4798;41.574;23.734;2023-09-18T10:10:47;95627.47;;;31.46;41.45
9521;BME280;4798;41.574;23.734;2023-09-18T10:13:19;95624.88;;;32.15;41.16
9521;BME280;4798;41.574;23.734;2023-09-18T10:15:50;95628.72;;;32.21;37.86
9521;BME280;4798;41.574;23.734;2023-09-18T10:18:26;95624.63;;;33.02;40.58
9521;BME280;4798;41.574;23.734;2023-09-18T10:20:59;95589.94;;;33.22;38.65
9521;BME280;4798;41.574;23.734;2023-09-18T10:23:38;95608.44;;;34.23;36.69
9521;BME280;4798;41.574;23.734;2023-09-18T10:26:19;95603.72;;;35.43;36.00
9521;BME280;4798;41.574;23.734;2023-09-18T10:28:53;95592.44;;;34.68;35.80
9521;BME280;4798;41.574;23.734;2023-09-18T10:31:26;95596.91;;;35.08;35.46
9521;BME280;4798;41.574;23.734;2023-09-18T10:33:56;95573.22;;;35.73;33.39
9521;BME280;4798;41.574;23.734;2023-09-18T10:36:25;95586.75;;;35.25;35.83
9521;BME280;4798;41.574;23.734;2023-09-18T10:38:54;95587.31;;;35.16;36.23
9521;BME280;4798;41.574;23.734;2023-09-18T10:41:23;95585.34;;;33.49;36.56
9521;BME280;4798;41.574;23.734;2023-09-18T10:43:56;95566.91;;;32.64;37.75
9521;BME280;4798;41.574;23.734;2023-09-18T10:46:25;95595.31;;;32.40;38.89
9521;BME280;4798;41.574;23.734;2023-09-18T10:48:54;95587.34;;;32.63;37.88
9521;BME280;4798;41.574;23.734;2023-09-18T10:51:23;95580.59;;;33.50;36.24
9521;BME280;4798;41.574;23.734;2023-09-18T10:53:53;95576.56;;;34.25;35.30
9521;BME280;4798;41.574;23.734;2023-09-18T10:56:21;95576.59;;;35.22;33.63
9521;BME280;4798;41.574;23.734;2023-09-18T10:58:58;95574.81;;;35.51;34.13
9521;BME280;4798;41.574;23.734;2023-09-18T11:01:27;95562.50;;;35.16;33.75
9521;BME280;4798;41.574;23.734;2023-09-18T11:03:58;95563.94;;;34.55;34.81
9521;BME280;4798;41.574;23.734;2023-09-18T11:06:29;95563.50;;;33.35;35.89
9521;BME280;4798;41.574;23.734;2023-09-18T11:09:07;95568.38;;;32.28;39.11
9521;BME280;4798;41.574;23.734;2023-09-18T11:11:37;95563.06;;;32.58;36.70
9521;BME280;4798;41.574;23.734;2023-09-18T11:14:11;95560.91;;;33.58;36.11
9521;BME280;4798;41.574;23.734;2023-09-18T11:16:41;95556.97;;;34.20;34.77
9521;BME280;4798;41.574;23.734;2023-09-18T11:19:12;95560.16;;;35.15;33.30
9521;BME280;4798;41.574;23.734;2023-09-18T11:21:42;95553.44;;;36.50;32.92
9521;BME280;4798;41.574;23.734;2023-09-18T11:24:16;95530.50;;;36.53;31.99
9521;BME280;4798;41.574;23.734;2023-09-18T11:26:46;95547.72;;;35.69;32.37
9521;BME280;4798;41.574;23.734;2023-09-18T11:29:17;95540.34;;;35.82;33.07
9521;BME280;4798;41.574;23.734;2023-09-18T11:31:47;95542.09;;;34.67;33.91
9521;BME280;4798;41.574;23.734;2023-09-18T11:34:20;95536.59;;;35.53;33.64
9521;BME280;4798;41.574;23.734;2023-09-18T11:36:50;95464.72;;;36.15;33.33
9521;BME280;4798;41.574;23.734;2023-09-18T11:39:35;95521.06;;;36.66;32.56
9521;BME280;4798;41.574;23.734;2023-09-18T11:42:09;95526.56;;;35.82;32.71
9521;BME280;4798;41.574;23.734;2023-09-18T11:44:40;95521.53;;;35.38;34.64
9521;BME280;4798;41.574;23.734;2023-09-18T11:47:15;95517.69;;;36.43;33.04
9521;BME280;4798;41.574;23.734;2023-09-18T11:49:50;95523.41;;;35.80;32.58
9521;BME280;4798;41.574;23.734;2023-09-18T11:52:23;95518.50;;;35.72;32.95
9521;BME280;4798;41.574;23.734;2023-09-18T11:54:52;95502.81;;;35.29;34.65
9521;BME280;4798;41.574;23.734;2023-09-18T11:57:21;95514.69;;;35.65;34.43
9521;BME280;4798;41.574;23.734;2023-09-18T11:59:51;95488.03;;;35.59;34.85
9521;BME280;4798;41.574;23.734;2023-09-18T12:02:27;95509.03;;;36.08;34.55
9521;BME280;4798;41.574;23.734;2023-09-18T12:05:10;95507.19;;;35.46;33.11
9521;BME280;4798;41.574;23.734;2023-09-18T12:07:39;95490.50;;;35.14;32.69
9521;BME280;4798;41.574;23.734;2023-09-18T12:10:11;95472.28;;;34.97;33.69
9521;BME280;4798;41.574;23.734;2023-09-18T12:12:41;95485.16;;;35.03;31.69
9521;BME280;4798;41.574;23.734;2023-09-18T12:15:12;95490.41;;;36.12;32.38
9521;BME280;4798;41.574;23.734;2023-09-18T12:17:42;95484.38;;;36.17;31.52
9521;BME280;4798;41.574;23.734;2023-09-18T12:20:15;95471.34;;;36.66;32.78
9521;BME280;4798;41.574;23.734;2023-09-18T12:22:47;95479.31;;;36.48;31.03
9521;BME280;4798;41.574;23.734;2023-09-18T12:25:17;95488.59;;;35.31;31.97
9521;BME280;4798;41.574;23.734;2023-09-18T12:27:51;95474.53;;;34.13;33.56
9521;BME280;4798;41.574;23.734;2023-09-18T12:30:22;95488.59;;;32.49;36.29
9521;BME280;4798;41.574;23.734;2023-09-18T12:32:51;95478.25;;;32.23;36.93
9521;BME280;4798;41.574;23.734;2023-09-18T12:35:20;95495.28;;;32.93;36.65
9521;BME280;4798;41.574;23.734;2023-09-18T12:37:50;95482.63;;;33.70;35.49
9521;BME280;4798;41.574;23.734;2023-09-18T12:40:23;95481.84;;;33.69;36.53
9521;BME280;4798;41.574;23.734;2023-09-18T12:42:53;95443.75;;;32.70;36.30
9521;BME280;4798;41.574;23.734;2023-09-18T12:45:23;95470.84;;;33.05;36.23
9521;BME280;4798;41.574;23.734;2023-09-18T12:47:55;95454.66;;;33.75;35.94
9521;BME280;4798;41.574;23.734;2023-09-18T12:50:24;95463.13;;;34.14;34.50
9521;BME280;4798;41.574;23.734;2023-09-18T12:52:53;95468.81;;;33.43;35.04
9521;BME280;4798;41.574;23.734;2023-09-18T12:55:22;95474.16;;;33.57;36.63
9521;BME280;4798;41.574;23.734;2023-09-18T12:57:52;95439.44;;;34.20;33.44
9521;BME280;4798;41.574;23.734;2023-09-18T13:00:23;95403.34;;;35.04;32.54
9521;BME280;4798;41.574;23.734;2023-09-18T13:02:54;95461.28;;;35.92;31.61
9521;BME280;4798;41.574;23.734;2023-09-18T13:05:24;95456.88;;;34.60;33.27
9521;BME280;4798;41.574;23.734;2023-09-18T13:07:54;95442.94;;;35.10;34.38
9521;BME280;4798;41.574;23.734;2023-09-18T13:10:25;95458.59;;;34.51;34.92
9521;BME280;4798;41.574;23.734;2023-09-18T13:12:55;95460.06;;;34.09;34.42
9521;BME280;4798;41.574;23.734;2023-09-18T13:15:27;95392.69;;;32.76;35.42
9521;BME280;4798;41.574;23.734;2023-09-18T13:17:58;95453.94;;;33.37;36.35
9521;BME280;4798;41.574;23.734;2023-09-18T13:20:28;95386.41;;;33.40;35.92